Time;durP1;ratioP1;P1;durP2;ratioP2;P2;SDS_P1;SDS_P2;PMS_P1;PMS_P2;Temp;Humidity;BMP_temperature;BMP_pressure;BME280_temperature;BME280_humidity;BME280_pressure;Samples;Min_cycle;Max_cycle;Signal;HPM_P1;HPM_P2
2023/06/11 00:01:18;;;;;;;1999.90;999.90;;;;;;;16.23;100.00;97551.47;4971894;28;20041;-76
2023/06/11 00:03:46;;;;;;;1999.90;999.90;;;;;;;16.29;100.00;97552.84;4971817;28;20484;-76
2023/06/11 00:06:17;;;;;;;1999.90;999.90;;;;;;;16.22;100.00;97552.63;4971887;28;20035;-76
2023/06/11 00:08:45;;;;;;;1999.90;999.90;;;;;;;16.20;100.00;97548.56;4971746;28;20070;-75
2023/06/11 00:11:10;;;;;;;1999.90;999.90;;;;;;;16.13;100.00;97532.59;4971767;28;20027;-76
2023/06/11 00:13:36;;;;;;;1999.90;999.90;;;;;;;16.06;100.00;97533.16;4954531;28;20034;-75
2023/06/11 00:16:01;;;;;;;1999.90;999.90;;;;;;;16.09;100.00;97526.16;4971665;28;20047;-76
2023/06/11 00:18:26;;;;;;;1999.90;999.90;;;;;;;16.12;100.00;97541.22;4971736;28;20031;-76
2023/06/11 00:20:51;;;;;;;1999.90;999.90;;;;;;;15.92;100.00;97532.66;4954144;28;20081;-76
2023/06/11 00:23:17;;;;;;;1999.90;999.90;;;;;;;16.01;100.00;97546.34;4953993;28;20400;-76
2023/06/11 00:25:42;;;;;;;1999.90;999.90;;;;;;;16.04;100.00;97540.94;4971801;28;20453;-76
2023/06/11 00:28:08;;;;;;;1999.90;999.90;;;;;;;16.17;100.00;97550.06;4971813;28;20026;-76
2023/06/11 00:30:33;;;;;;;1999.90;999.90;;;;;;;16.18;100.00;97548.13;4953823;28;20034;-75
2023/06/11 00:33:00;;;;;;;1999.90;999.90;;;;;;;16.13;100.00;97542.84;4971553;28;20469;-76
2023/06/11 00:35:26;;;;;;;1999.90;999.90;;;;;;;16.19;100.00;97541.47;4954022;28;20555;-75
2023/06/11 00:37:52;;;;;;;1999.90;999.90;;;;;;;16.17;100.00;97540.97;4971678;28;20400;-77
2023/06/11 00:40:17;;;;;;;1999.90;999.90;;;;;;;16.27;100.00;97551.59;4972122;28;20035;-74
2023/06/11 00:42:45;;;;;;;1999.90;999.90;;;;;;;16.24;100.00;97538.47;4971708;28;20027;-75
2023/06/11 00:45:11;;;;;;;1999.90;999.90;;;;;;;16.24;100.00;97555.84;4975979;28;20031;-74
2023/06/11 00:47:38;;;;;;;1999.90;999.90;;;;;;;16.26;100.00;97552.72;4975765;28;20137;-75
2023/06/11 00:50:05;;;;;;;1999.90;999.90;;;;;;;16.30;100.00;97553.66;4958155;28;20118;-74
2023/06/11 00:52:30;;;;;;;1999.90;999.90;;;;;;;16.18;100.00;97546.19;4958930;28;20027;-75
2023/06/11 00:54:56;;;;;;;1999.90;999.90;;;;;;;16.22;100.00;97549.06;4975713;28;20559;-75
2023/06/11 00:57:25;;;;;;;1999.90;999.90;;;;;;;16.19;100.00;97547.78;4975228;28;20030;-75
2023/06/11 00:59:53;;;;;;;1999.90;999.90;;;;;;;16.20;100.00;97543.88;4975245;28;20139;-74
2023/06/11 01:02:26;;;;;;;1999.90;999.90;;;;;;;16.16;100.00;97539.38;4975144;28;20058;-77
2023/06/11 01:04:56;;;;;;;1999.90;999.90;;;;;;;16.00;100.00;97537.28;4957574;28;20031;-75
2023/06/11 01:07:24;;;;;;;1999.90;999.90;;;;;;;15.99;100.00;97543.13;4978646;28;20030;-75
2023/06/11 01:09:50;;;;;;;1999.90;999.90;;;;;;;15.95;100.00;97542.19;4976438;28;20091;-75
2023/06/11 01:12:16;;;;;;;1999.90;999.90;;;;;;;15.96;100.00;97541.88;4957438;28;20042;-75
2023/06/11 01:14:42;;;;;;;1999.90;999.90;;;;;;;15.89;100.00;97522.28;4975200;28;20034;-75
2023/06/11 01:17:15;;;;;;;1999.90;999.90;;;;;;;15.93;100.00;97531.50;4974826;28;20046;-74
2023/06/11 01:19:58;;;;;;;1999.90;999.90;;;;;;;16.10;100.00;97532.47;4974743;28;20081;-74
2023/06/11 01:22:57;;;;;;;1999.90;999.90;;;;;;;16.11;100.00;97534.88;4974674;28;20117;-75
2023/06/11 01:25:59;;;;;;;1999.90;999.90;;;;;;;16.20;100.00;97543.06;4974623;28;20031;-75
2023/06/11 01:28:28;;;;;;;1999.90;999.90;;;;;;;15.98;100.00;97534.03;4974279;28;20109;-75
2023/06/11 01:30:57;;;;;;;1999.90;999.90;;;;;;;16.10;100.00;97536.03;4974517;28;20042;-76
2023/06/11 01:33:24;;;;;;;1999.90;999.90;;;;;;;16.12;100.00;97543.97;4956713;28;20520;-74
2023/06/11 01:35:52;;;;;;;1999.90;999.90;;;;;;;16.08;100.00;97552.13;4957152;28;20385;-74
2023/06/11 01:38:17;;;;;;;1999.90;999.90;;;;;;;16.11;100.00;97547.88;4956996;28;20019;-74
2023/06/11 01:40:43;;;;;;;1999.90;999.90;;;;;;;16.11;100.00;97543.16;4973273;28;20023;-74
2023/06/11 01:43:08;;;;;;;1999.90;999.90;;;;;;;16.15;100.00;97540.53;4974158;28;20472;-74
2023/06/11 01:45:34;;;;;;;1999.90;999.90;;;;;;;16.20;100.00;97543.06;4974537;28;20027;-74
2023/06/11 01:48:00;;;;;;;1999.90;999.90;;;;;;;16.17;100.00;97538.22;4974175;28;20484;-75
2023/06/11 01:50:25;;;;;;;1999.90;999.90;;;;;;;16.20;100.00;97540.28;4974430;28;20030;-75
2023/06/11 01:52:51;;;;;;;1999.90;999.90;;;;;;;16.16;100.00;97544.91;4956769;28;20023;-74
2023/06/11 01:55:16;;;;;;;1999.90;999.90;;;;;;;16.17;100.00;97539.03;4972907;28;20041;-75
2023/06/11 01:57:42;;;;;;;1999.90;999.90;;;;;;;16.22;100.00;97540.78;4974167;28;20034;-75
2023/06/11 02:00:11;;;;;;;1999.90;999.90;;;;;;;16.20;100.00;97543.06;4956633;28;20054;-74
2023/06/11 02:02:41;;;;;;;1999.90;999.90;;;;;;;16.23;100.00;97532.13;4974015;28;20118;-74
2023/06/11 02:05:07;;;;;;;1999.90;999.90;;;;;;;16.23;100.00;97545.94;4955372;28;20113;-75
2023/06/11 02:07:32;;;;;;;1999.90;999.90;;;;;;;16.15;100.00;97544.09;4956668;28;20030;-75
2023/06/11 02:09:58;;;;;;;1999.90;999.90;;;;;;;16.20;100.00;97548.56;4956333;28;20089;-74
2023/06/11 02:12:23;;;;;;;1999.90;999.90;;;;;;;16.12;100.00;97538.44;4973490;28;20039;-74
2023/06/11 02:14:48;;;;;;;1999.90;999.90;;;;;;;16.20;100.00;97548.56;4973819;28;20031;-73
2023/06/11 02:17:14;;;;;;;1999.90;999.90;;;;;;;16.18;100.00;97548.13;4956593;28;20105;-75
2023/06/11 02:19:39;;;;;;;1999.90;999.90;;;;;;;16.14;100.00;97539.72;4973933;28;20034;-74
2023/06/11 02:22:04;;;;;;;1999.90;999.90;;;;;;;16.16;100.00;97542.97;4956322;28;20042;-73
2023/06/11 02:24:30;;;;;;;1999.90;999.90;;;;;;;16.11;100.00;97543.16;4973664;28;20509;-74
2023/06/11 02:26:55;;;;;;;1999.90;999.90;;;;;;;16.19;100.00;97541.47;4973303;28;20041;-74
2023/06/11 02:29:20;;;;;;;1999.90;999.90;;;;;;;16.24;100.00;97539.28;4956090;28;20113;-74
2023/06/11 02:31:46;;;;;;;1999.90;999.90;;;;;;;16.29;100.00;97547.34;4973515;28;20023;-74
2023/06/11 02:34:11;;;;;;;1999.90;999.90;;;;;;;16.33;100.00;97542.75;4973430;28;20057;-74
2023/06/11 02:36:37;;;;;;;1999.90;999.90;;;;;;;16.34;100.00;97544.38;4973462;28;20018;-75
2023/06/11 02:39:03;;;;;;;1999.90;999.90;;;;;;;16.29;100.00;97552.06;4973416;28;20089;-74
2023/06/11 02:41:28;;;;;;;1999.90;999.90;;;;;;;16.27;100.00;97548.81;4976374;28;20069;-74
2023/06/11 02:43:54;;;;;;;1999.90;999.90;;;;;;;16.28;100.00;97550.44;5011890;28;20121;-74
2023/06/11 02:46:19;;;;;;;1999.90;999.90;;;;;;;16.25;100.00;97548.38;4995101;28;20113;-74
2023/06/11 02:48:44;;;;;;;1999.90;999.90;;;;;;;16.25;100.00;97551.13;5012137;28;20030;-75
2023/06/11 02:51:10;;;;;;;1999.90;999.90;;;;;;;16.21;100.00;97545.50;5011882;28;20032;-74
2023/06/11 02:53:35;;;;;;;1999.90;999.90;;;;;;;16.11;100.00;97540.41;4994512;28;20038;-73
2023/06/11 02:56:00;;;;;;;1999.90;999.90;;;;;;;16.12;100.00;97550.31;5015224;28;20048;-75
2023/06/11 02:58:26;;;;;;;1999.90;999.90;;;;;;;16.12;100.00;97543.97;5014702;28;20398;-73
2023/06/11 03:00:51;;;;;;;1999.90;999.90;;;;;;;16.10;100.00;97554.56;5012477;28;20468;-75
2023/06/11 03:03:16;;;;;;;1999.90;999.90;;;;;;;16.02;100.00;97540.50;5014408;28;20104;-75
2023/06/11 03:05:41;;;;;;;1999.90;999.90;;;;;;;15.97;100.00;97537.97;4994683;28;20018;-74
2023/06/11 03:08:07;;;;;;;1999.90;999.90;;;;;;;15.95;100.00;97536.66;4994288;28;20116;-74
2023/06/11 03:10:32;;;;;;;1999.90;999.90;;;;;;;16.00;100.00;97534.53;5011809;28;20410;-74
2023/06/11 03:12:57;;;;;;;1999.90;999.90;;;;;;;15.91;100.00;97530.25;4984159;28;20476;-74
2023/06/11 03:15:23;;;;;;;1999.90;999.90;;;;;;;15.91;100.00;97525.50;4971269;28;20042;-74
2023/06/11 03:17:48;;;;;;;1999.90;999.90;;;;;;;15.86;100.00;97527.69;4979866;28;20460;-74
2023/06/11 03:20:13;;;;;;;1999.90;999.90;;;;;;;15.92;100.00;97534.59;4991491;28;20041;-74
2023/06/11 03:22:39;;;;;;;1999.90;999.90;;;;;;;15.90;100.00;97523.91;4973819;28;20030;-75
2023/06/11 03:25:05;;;;;;;1999.90;999.90;;;;;;;15.85;100.00;97526.88;4997811;28;20541;-74
2023/06/11 03:27:30;;;;;;;1999.90;999.90;;;;;;;15.85;100.00;97520.56;5010914;28;20549;-73
2023/06/11 03:29:56;;;;;;;1999.90;999.90;;;;;;;15.86;100.00;97517.47;4982514;28;20019;-74
2023/06/11 03:32:21;;;;;;;1999.90;999.90;;;;;;;15.91;100.00;97520.00;4972068;28;20105;-74
2023/06/11 03:34:46;;;;;;;1999.90;999.90;;;;;;;15.90;100.00;97526.69;4971966;28;20562;-74
2023/06/11 03:37:12;;;;;;;1999.90;999.90;;;;;;;15.87;100.00;97524.59;4971781;28;20030;-74
2023/06/11 03:39:37;;;;;;;1999.90;999.90;;;;;;;15.92;100.00;97516.09;4972038;28;20227;-74
2023/06/11 03:42:03;;;;;;;1999.90;999.90;;;;;;;15.93;100.00;97526.00;4971956;28;20467;-74
2023/06/11 03:44:28;;;;;;;1999.90;999.90;;;;;;;16.07;100.00;97537.50;4971793;28;20120;-73
2023/06/11 03:46:53;;;;;;;1999.90;999.90;;;;;;;16.21;100.00;97528.13;4972265;28;20106;-74
2023/06/11 03:49:19;;;;;;;1999.90;999.90;;;;;;;16.26;100.00;97525.94;4970483;28;20130;-73
2023/06/11 03:51:44;;;;;;;1999.90;999.90;;;;;;;16.40;100.00;97536.66;4971718;28;20443;-75
2023/06/11 03:54:10;;;;;;;1999.90;999.90;;;;;;;16.47;100.00;97540.47;4971894;28;20762;-74
2023/06/11 03:56:35;;;;;;;1999.90;999.90;;;;;;;16.62;100.00;97544.53;4970491;28;20054;-73
2023/06/11 03:59:00;;;;;;;1999.90;999.90;;;;;;;16.57;100.00;97542.03;4971582;28;20085;-74
2023/06/11 04:01:26;;;;;;;1999.90;999.90;;;;;;;16.54;100.00;97543.47;4987761;28;20431;-73
2023/06/11 04:03:53;;;;;;;1999.90;999.90;;;;;;;16.50;100.00;97550.03;4973790;28;20038;-86
2023/06/11 04:06:18;;;;;;;1999.90;999.90;;;;;;;16.41;100.00;97554.84;4985631;28;20053;-86
2023/06/11 04:08:44;;;;;;;1999.90;999.90;;;;;;;16.35;100.00;97557.00;5001446;28;20050;-85
2023/06/11 04:11:10;;;;;;;1999.90;999.90;;;;;;;16.36;100.00;97538.50;5005545;28;20022;-86
2023/06/11 04:13:35;;;;;;;1999.90;999.90;;;;;;;16.49;100.00;97542.88;5006529;28;20121;-85
2023/06/11 04:16:01;;;;;;;1999.90;999.90;;;;;;;16.44;100.00;97545.88;5023307;28;20044;-86
2023/06/11 04:18:27;;;;;;;1999.90;999.90;;;;;;;16.58;100.00;97554.66;4995938;28;20049;-85
2023/06/11 04:20:53;;;;;;;1999.90;999.90;;;;;;;16.55;100.00;97544.28;4977625;28;20052;-85
2023/06/11 04:23:20;;;;;;;1999.90;999.90;;;;;;;16.49;100.00;97540.13;4995124;28;20093;-84
2023/06/11 04:25:48;;;;;;;1999.90;999.90;;;;;;;16.39;100.00;97554.38;5002358;28;20047;-84
2023/06/11 04:28:16;;;;;;;1999.90;999.90;;;;;;;16.41;100.00;97554.84;5004592;28;20085;-85
2023/06/11 04:30:41;;;;;;;1999.90;999.90;;;;;;;16.22;100.00;97543.53;5020147;28;20030;-85
2023/06/11 04:33:07;;;;;;;1999.90;999.90;;;;;;;16.41;100.00;97541.03;5003118;28;20026;-87
2023/06/11 04:35:35;;;;;;;1999.90;999.90;;;;;;;16.42;100.00;97542.63;4973161;28;20038;-86
2023/06/11 04:38:05;;;;;;;1999.90;999.90;;;;;;;16.51;100.00;97535.06;4989529;28;20084;-85
2023/06/11 04:40:30;;;;;;;1999.90;999.90;;;;;;;16.85;100.00;97548.44;5001146;28;20022;-85
2023/06/11 04:42:57;;;;;;;1999.90;999.90;;;;;;;17.03;100.00;97533.25;5007218;28;20018;-85
2023/06/11 04:45:23;;;;;;;1999.90;999.90;;;;;;;17.21;100.00;97549.56;4994579;28;20038;-87
2023/06/11 04:48:03;;;;;;;1999.90;999.90;;;;;;;17.25;100.00;97550.47;5029796;28;20014;-87
2023/06/11 04:50:31;;;;;;;1999.90;999.90;;;;;;;16.76;100.00;97506.31;5036091;28;20018;-86
2023/06/11 04:53:01;;;;;;;1999.90;999.90;;;;;;;17.01;100.00;97541.06;5023815;28;20145;-85
2023/06/11 04:55:38;;;;;;;1999.90;999.90;;;;;;;17.18;100.00;97550.25;4985160;28;20022;-87
2023/06/11 04:58:04;;;;;;;1999.90;999.90;;;;;;;17.18;100.00;97551.06;5017602;28;20086;-86
2023/06/11 05:08:28;;;;;;;1999.90;999.90;;;;;;;17.46;100.00;97534.53;5792103;22;20038;-88
2023/06/11 05:34:53;;;;;;;1999.90;999.90;;;;;;;18.41;100.00;97553.03;5321486;22;20065;-86
2023/06/11 05:37:18;;;;;;;1999.90;999.90;;;;;;;18.39;100.00;97566.41;4987551;28;20034;-86
2023/06/11 05:39:45;;;;;;;1999.90;999.90;;;;;;;18.42;100.00;97574.03;5007530;28;20030;-85
2023/06/11 05:42:10;;;;;;;1999.90;999.90;;;;;;;18.40;100.00;97573.56;4990871;28;20023;-89
2023/06/11 05:44:35;;;;;;;1999.90;999.90;;;;;;;18.24;100.00;97569.97;4996053;28;20054;-85
2023/06/11 05:47:01;;;;;;;1999.90;999.90;;;;;;;18.23;100.00;97579.44;4999948;28;20062;-87
2023/06/11 05:49:27;;;;;;;1999.90;999.90;;;;;;;17.88;100.00;97571.78;4998482;28;20046;-85
2023/06/11 05:51:53;;;;;;;1999.90;999.90;;;;;;;18.03;100.00;97576.53;4996777;28;20040;-85
2023/06/11 05:54:18;;;;;;;1999.90;999.90;;;;;;;18.23;100.00;97579.44;4999012;28;20582;-85
2023/06/11 05:56:44;;;;;;;1999.90;999.90;;;;;;;18.34;100.00;97583.28;4992195;28;20037;-85
2023/06/11 05:59:09;;;;;;;1999.90;999.90;;;;;;;18.42;100.00;97580.34;5007838;28;20484;-85
2023/06/11 06:01:36;;;;;;;1999.90;999.90;;;;;;;18.70;100.00;97594.97;4985667;28;20015;-86
2023/06/11 06:04:02;;;;;;;1999.90;999.90;;;;;;;18.92;100.00;97596.31;5002392;28;20132;-86
2023/06/11 06:06:29;;;;;;;1999.90;999.90;;;;;;;18.64;100.00;97565.13;5005717;28;20069;-85
2023/06/11 06:08:55;;;;;;;1999.90;999.90;;;;;;;19.17;100.00;97597.72;5010498;28;20026;-85
2023/06/11 06:11:20;;;;;;;1999.90;999.90;;;;;;;19.24;100.00;97597.09;5028030;28;20017;-83
2023/06/11 06:13:46;;;;;;;1999.90;999.90;;;;;;;19.19;100.00;97600.97;5025700;28;20041;-86
2023/06/11 06:16:11;;;;;;;1999.90;999.90;;;;;;;19.32;100.00;97601.66;5002564;28;20026;-84
2023/06/11 06:18:37;;;;;;;1999.90;999.90;;;;;;;19.51;100.00;97604.50;5001586;28;20049;-86
2023/06/11 06:21:02;;;;;;;1999.90;999.90;;;;;;;19.49;100.00;97597.69;5016239;28;20057;-87
2023/06/11 06:23:28;;;;;;;1999.90;999.90;;;;;;;19.43;100.00;97613.00;4998442;28;20034;-84
2023/06/11 06:25:53;;;;;;;1999.90;999.90;;;;;;;19.40;100.00;97611.78;4989571;28;20030;-85
2023/06/11 06:28:19;;;;;;;1999.90;999.90;;;;;;;19.36;100.00;97607.28;4973574;28;20026;-86
2023/06/11 06:31:07;;;;;;;1999.90;999.90;;;;;;;19.60;100.00;97610.66;4975839;28;20038;-86
2023/06/11 06:33:36;;;;;;;1999.90;999.90;;;;;;;20.09;100.00;97608.13;4973582;28;20066;-85
2023/06/11 06:36:04;;;;;;;1999.90;999.90;;;;;;;20.86;100.00;97612.78;4958287;28;20027;-85
2023/06/11 06:38:31;;;;;;;1999.90;999.90;;;;;;;21.38;100.00;97626.00;4983166;28;20031;-85
2023/06/11 06:40:56;;;;;;;1999.90;999.90;;;;;;;20.81;100.00;97606.34;4963429;28;20547;-85
2023/06/11 06:43:23;;;;;;;1999.90;999.90;;;;;;;20.34;100.00;97621.72;4966383;28;20035;-86
2023/06/11 06:45:48;;;;;;;1999.90;999.90;;;;;;;20.36;100.00;97627.75;4985097;28;20023;-85
2023/06/11 06:48:14;;;;;;;1999.90;999.90;;;;;;;19.89;100.00;97609.28;4961818;28;20408;-84
2023/06/11 06:50:39;;;;;;;1999.90;999.90;;;;;;;19.54;100.00;97611.31;4960701;28;20031;-84
2023/06/11 06:53:04;;;;;;;1999.90;999.90;;;;;;;19.65;100.00;97621.47;4961433;28;20026;-86
2023/06/11 06:55:31;;;;;;;1999.90;999.90;;;;;;;20.09;100.00;97632.31;4963734;28;20121;-85
2023/06/11 06:57:57;;;;;;;1999.90;999.90;;;;;;;20.35;100.00;97629.72;4978742;28;20476;-85
2023/06/11 07:00:22;;;;;;;1999.90;999.90;;;;;;;20.58;100.00;97626.97;4958062;28;20034;-82
2023/06/11 07:02:47;;;;;;;1999.90;999.90;;;;;;;21.12;100.00;97635.09;4959334;28;20035;-84
2023/06/11 07:05:13;;;;;;;1999.90;999.90;;;;;;;21.13;100.00;97640.31;4957087;28;20035;-83
2023/06/11 07:07:38;;;;;;;1999.90;999.90;;;;;;;20.78;100.00;97631.31;4940161;28;20039;-73
2023/06/11 07:10:04;;;;;;;1999.90;999.90;;;;;;;20.81;100.00;97627.78;4972699;28;20027;-73
2023/06/11 07:12:29;;;;;;;1999.90;999.90;;;;;;;20.83;100.00;97633.81;4954166;28;20472;-73
2023/06/11 07:14:54;;;;;;;1999.90;999.90;;;;;;;21.38;100.00;97628.78;4972507;28;20039;-73
2023/06/11 07:17:21;;;;;;;1999.90;999.90;;;;;;;21.59;100.00;97626.31;4969968;28;20100;-73
2023/06/11 07:19:46;;;;;;;1999.90;999.90;;;;;;;22.08;100.00;97626.22;4956655;28;20038;-74
2023/06/11 07:22:12;;;;;;;1999.90;999.90;;;;;;;22.36;100.00;97629.38;4970661;28;20034;-74
2023/06/11 07:24:39;;;;;;;1999.90;999.90;;;;;;;23.09;100.00;97636.91;4971118;28;20063;-75
2023/06/11 07:27:05;;;;;;;1999.90;999.90;;;;;;;22.84;100.00;97630.28;4972167;28;20490;-76
2023/06/11 07:29:30;;;;;;;1999.90;999.90;;;;;;;22.93;100.00;97628.81;4954837;28;20039;-74
2023/06/11 07:31:55;;;;;;;1999.90;999.90;;;;;;;23.46;100.00;97636.88;4972079;28;20413;-74
2023/06/11 07:34:21;;;;;;;1999.90;999.90;;;;;;;22.99;100.00;97625.69;4977400;28;20146;-74
2023/06/11 07:36:46;;;;;;;1999.90;999.90;;;;;;;22.63;100.00;97636.44;4991443;28;20042;-74
2023/06/11 07:39:11;;;;;;;1999.90;999.90;;;;;;;23.16;100.00;97636.97;4991303;28;20369;-74
2023/06/11 07:41:37;;;;;;;1999.90;999.90;;;;;;;23.00;100.00;97627.25;4973803;28;20069;-75
2023/06/11 07:44:02;;;;;;;1999.90;999.90;;;;;;;23.56;100.00;97640.91;4991141;28;20030;-74
2023/06/11 07:46:28;;;;;;;1999.90;999.90;;;;;;;23.63;100.00;97638.16;4991087;28;20125;-75
2023/06/11 07:48:53;;;;;;;1999.90;999.90;;;;;;;24.25;100.00;97642.53;4991379;28;20057;-75
2023/06/11 07:51:20;;;;;;;1999.90;999.90;;;;;;;25.14;100.00;97649.22;4991198;28;20069;-75
2023/06/11 07:53:45;;;;;;;1999.90;999.90;;;;;;;26.17;93.66;97643.56;4972812;28;20467;-74
2023/06/11 07:56:11;;;;;;;1999.90;999.90;;;;;;;25.15;88.44;97645.22;5000637;28;20034;-75
2023/06/11 07:58:37;;;;;;;1999.90;999.90;;;;;;;24.82;89.87;97642.75;4980365;28;20026;-76
2023/06/11 08:01:02;;;;;;;1999.90;999.90;;;;;;;25.40;88.84;97639.63;4976230;28;20395;-75
2023/06/11 08:03:28;;;;;;;1999.90;999.90;;;;;;;26.56;80.35;97644.97;4996104;28;20029;-75
2023/06/11 08:05:53;;;;;;;1999.90;999.90;;;;;;;26.80;77.47;97643.31;5001008;28;20022;-75
2023/06/11 08:08:18;;;;;;;1999.90;999.90;;;;;;;26.41;78.78;97645.44;4999587;28;20065;-75
2023/06/11 08:10:45;;;;;;;1999.90;999.90;;;;;;;26.36;78.30;97638.28;5003870;28;20018;-72
2023/06/11 08:13:11;;;;;;;1999.90;999.90;;;;;;;25.98;78.09;97641.97;4981844;28;20034;-73
2023/06/11 08:15:37;;;;;;;1999.90;999.90;;;;;;;25.12;85.76;97634.03;5008952;28;20426;-74
2023/06/11 08:18:02;;;;;;;1999.90;999.90;;;;;;;24.97;89.75;97630.38;5011744;28;20041;-73
2023/06/11 08:20:28;;;;;;;1999.90;999.90;;;;;;;24.44;88.65;97638.63;5011089;28;20032;-75
2023/06/11 08:22:53;;;;;;;1999.90;999.90;;;;;;;23.57;96.63;97636.94;5010479;28;20026;-77
2023/06/11 08:25:18;;;;;;;1999.90;999.90;;;;;;;23.90;98.76;97633.97;5003039;28;20377;-76
2023/06/11 08:27:44;;;;;;;1999.90;999.90;;;;;;;23.99;98.10;97631.63;5000639;28;20466;-76
2023/06/11 08:30:10;;;;;;;1999.90;999.90;;;;;;;23.57;98.76;97628.56;4982586;28;20034;-76
2023/06/11 08:32:35;;;;;;;1999.90;999.90;;;;;;;23.99;97.67;97634.41;4999441;28;20069;-79
2023/06/11 08:35:00;;;;;;;1999.90;999.90;;;;;;;24.04;98.14;97625.66;4995689;28;20045;-81
2023/06/11 08:37:26;;;;;;;1999.90;999.90;;;;;;;24.26;93.86;97632.97;4991008;28;20030;-76
2023/06/11 08:39:51;;;;;;;1999.90;999.90;;;;;;;24.38;92.45;97641.00;4982618;28;20030;-74
2023/06/11 08:42:17;;;;;;;1999.90;999.90;;;;;;;23.85;94.27;97637.13;4976898;28;20037;-75
2023/06/11 08:44:42;;;;;;;1999.90;999.90;;;;;;;23.87;93.42;97627.16;5002686;28;20052;-77
2023/06/11 08:47:10;;;;;;;1999.90;999.90;;;;;;;24.26;91.95;97632.97;5011575;28;20087;-77
2023/06/11 08:49:39;;;;;;;1999.90;999.90;;;;;;;24.09;93.04;97630.84;5008469;28;20030;-75
2023/06/11 08:52:05;;;;;;;1999.90;999.90;;;;;;;24.21;92.54;97632.56;4987622;28;20027;-75
2023/06/11 08:54:31;;;;;;;1999.90;999.90;;;;;;;23.98;92.85;97624.41;4990941;28;20033;-74
2023/06/11 08:56:57;;;;;;;1999.90;999.90;;;;;;;24.16;91.55;97636.50;4982466;28;20113;-73
2023/06/11 08:59:23;;;;;;;1999.90;999.90;;;;;;;25.28;83.71;97631.63;4998580;28;20097;-73
2023/06/11 09:01:50;;;;;;;1999.90;999.90;;;;;;;24.57;85.82;97636.28;4998634;28;20081;-76
2023/06/11 09:04:20;;;;;;;1999.90;999.90;;;;;;;24.85;87.81;97631.56;4997658;28;20054;-75
2023/06/11 09:07:00;;;;;;;1999.90;999.90;;;;;;;25.49;82.16;97638.06;5000061;28;20026;-75
2023/06/11 09:09:26;;;;;;;1999.90;999.90;;;;;;;27.65;70.83;97646.31;4999921;28;20053;-76
2023/06/11 09:11:52;;;;;;;1999.90;999.90;;;;;;;28.10;69.27;97646.25;5001819;28;20014;-75
2023/06/11 09:14:17;;;;;;;1999.90;999.90;;;;;;;26.70;75.46;97649.72;5003268;28;20018;-75
2023/06/11 09:16:45;;;;;;;1999.90;999.90;;;;;;;26.36;75.91;97651.50;5001160;28;20026;-74
2023/06/11 09:19:12;;;;;;;1999.90;999.90;;;;;;;25.58;79.97;97636.84;5006001;28;20034;-78
2023/06/11 09:21:38;;;;;;;1999.90;999.90;;;;;;;25.23;85.96;97638.41;5001814;28;20035;-75
2023/06/11 09:24:08;;;;;;;1999.90;999.90;;;;;;;24.70;88.42;97618.72;5003049;28;20034;-75
2023/06/11 09:26:33;;;;;;;1999.90;999.90;;;;;;;24.70;91.24;97629.13;5004497;28;20038;-75
2023/06/11 09:28:59;;;;;;;1999.90;999.90;;;;;;;24.82;86.85;97628.78;5000973;28;20045;-76
2023/06/11 09:31:25;;;;;;;1999.90;999.90;;;;;;;24.90;88.09;97616.41;4998370;28;20510;-74
2023/06/11 09:33:52;;;;;;;1999.90;999.90;;;;;;;24.52;91.37;97635.47;4979839;28;20061;-75
2023/06/11 09:36:18;;;;;;;1999.90;999.90;;;;;;;25.20;88.27;97627.22;4983530;28;20025;-74
2023/06/11 09:38:47;;;;;;;1999.90;999.90;;;;;;;25.56;82.31;97624.03;4985428;28;20030;-75
2023/06/11 09:41:13;;;;;;;1999.90;999.90;;;;;;;25.81;82.68;97637.22;5001833;28;20037;-75
2023/06/11 09:43:39;;;;;;;1999.90;999.90;;;;;;;27.88;70.50;97644.88;5000547;28;20026;-74
2023/06/11 09:46:05;;;;;;;1999.90;999.90;;;;;;;27.73;69.64;97652.66;4992300;28;20396;-74
2023/06/11 09:48:31;;;;;;;1999.90;999.90;;;;;;;25.75;79.69;97633.22;4992263;28;20037;-75
2023/06/11 09:51:00;;;;;;;1999.90;999.90;;;;;;;25.05;84.27;97632.00;4991692;28;20117;-75
2023/06/11 09:53:27;;;;;;;1999.90;999.90;;;;;;;24.44;87.33;97625.44;4992702;28;20069;-75
2023/06/11 09:55:53;;;;;;;1999.90;999.90;;;;;;;24.28;85.48;97630.56;4992805;28;20038;-79
2023/06/11 09:58:22;;;;;;;1999.90;999.90;;;;;;;24.60;86.58;97638.28;4992715;28;20057;-75
2023/06/11 10:00:52;;;;;;;1999.90;999.90;;;;;;;24.10;88.71;97638.06;4992584;28;20058;-76
2023/06/11 10:03:18;;;;;;;1999.90;999.90;;;;;;;24.11;89.48;97634.09;5001998;28;20038;-74
2023/06/11 10:05:43;;;;;;;1999.90;999.90;;;;;;;24.18;88.43;97636.94;5003759;28;20028;-74
2023/06/11 10:08:18;;;;;;;1999.90;999.90;;;;;;;24.43;86.92;97642.63;5012207;28;20033;-74
2023/06/11 10:10:45;;;;;;;1999.90;999.90;;;;;;;24.69;86.08;97638.69;5005984;28;20105;-86
2023/06/11 10:13:11;;;;;;;1999.90;999.90;;;;;;;24.88;83.83;97643.97;5005989;28;20045;-81
2023/06/11 10:15:37;;;;;;;1999.90;999.90;;;;;;;24.88;83.58;97646.78;5012227;28;20526;-76
2023/06/11 10:18:12;;;;;;;1999.90;999.90;;;;;;;25.42;81.21;97643.63;5013882;28;20036;-77
2023/06/11 10:20:50;;;;;;;1999.90;999.90;;;;;;;26.30;76.07;97651.13;5001729;28;20034;-77
2023/06/11 10:23:16;;;;;;;1999.90;999.90;;;;;;;27.23;71.74;97655.03;5006492;28;20029;-76
2023/06/11 10:25:41;;;;;;;1999.90;999.90;;;;;;;28.02;66.01;97653.97;5008994;28;20026;-84
2023/06/11 10:28:16;;;;;;;1999.90;999.90;;;;;;;27.30;66.96;97646.56;4992397;28;20038;-81
2023/06/11 10:30:51;;;;;;;;;;;;;;;26.53;70.63;97651.41;4977021;28;20085;-81
2023/06/11 10:33:16;;;;;;;1999.90;999.90;;;;;;;26.21;72.44;97645.16;4995148;28;20326;-82
2023/06/11 10:35:48;;;;;;;1999.90;999.90;;;;;;;26.31;71.98;97635.09;4994961;28;20026;-81
2023/06/11 10:38:16;;;;;;;1999.90;999.90;;;;;;;25.64;76.23;97629.63;4994129;28;20104;-81
2023/06/11 10:40:42;;;;;;;1999.90;999.90;;;;;;;24.73;77.70;97622.72;4993405;28;20053;-77
2023/06/11 10:43:21;;;;;;;1999.90;999.90;;;;;;;24.46;81.14;97623.03;4974694;28;20507;-82
2023/06/11 10:45:59;;;;;;;1999.90;999.90;;;;;;;23.47;84.91;97630.06;4994113;28;20026;-80
2023/06/11 10:48:29;;;;;;;1999.90;999.90;;;;;;;23.38;95.31;97646.34;4994010;28;20034;-75
2023/06/11 10:51:02;;;;;;;1999.90;999.90;;;;;;;20.53;100.00;97641.16;4976380;28;20030;-78
2023/06/11 10:53:39;;;;;;;1999.90;999.90;;;;;;;18.98;100.00;97650.31;4993010;28;20033;-76
2023/06/11 10:56:06;;;;;;;1999.90;999.90;;;;;;;18.15;100.00;97633.81;4968643;28;20113;-76
2023/06/11 10:58:33;;;;;;;1999.90;999.90;;;;;;;17.90;100.00;97638.63;4975347;28;20006;-76
2023/06/11 11:00:58;;;;;;;1999.90;999.90;;;;;;;17.84;100.00;97628.97;4974428;28;20320;-76
2023/06/11 11:03:26;;;;;;;1999.90;999.90;;;;;;;17.95;100.00;97616.22;4997499;28;20507;-76
2023/06/11 11:05:53;;;;;;;1999.90;999.90;;;;;;;18.05;100.00;97612.16;4993911;28;20077;-76
2023/06/11 11:08:20;;;;;;;1999.90;999.90;;;;;;;18.19;100.00;97616.16;4991342;28;20502;-75
2023/06/11 11:10:46;;;;;;;1999.90;999.90;;;;;;;18.41;100.00;97606.47;4979473;28;20049;-76
2023/06/11 11:13:11;;;;;;;1999.90;999.90;;;;;;;18.64;100.00;97613.03;4983655;28;20546;-77
2023/06/11 11:15:37;;;;;;;1999.90;999.90;;;;;;;18.80;100.00;97599.19;4987859;28;20022;-76
2023/06/11 11:18:02;;;;;;;1999.90;999.90;;;;;;;19.20;100.00;97610.88;4992354;28;20054;-76
2023/06/11 11:20:32;;;;;;;1999.90;999.90;;;;;;;19.36;100.00;97596.19;5000052;28;20061;-78